Time;durP1;ratioP1;P1;durP2;ratioP2;P2;SDS_P1;SDS_P2;PMS_P1;PMS_P2;Temp;Humidity;BMP_temperature;BMP_pressure;BME280_temperature;BME280_humidity;BME280_pressure;Samples;Min_cycle;Max_cycle;Signal;HPM_P1;HPM_P2
2022/08/31 00:05:59;;;;;;;4.53;4.10;;;21.40;81.00;;;;;;5071047;28;20086;-71
2022/08/31 00:08:26;;;;;;;6.18;4.10;;;21.40;82.10;;;;;;5070556;28;20039;-71
2022/08/31 00:10:53;;;;;;;6.03;4.00;;;21.40;83.80;;;;;;5071103;28;20496;-72
2022/08/31 00:13:20;;;;;;;6.15;4.50;;;21.30;85.10;;;;;;5071866;28;20029;-72
2022/08/31 00:15:46;;;;;;;5.97;4.30;;;;;;;;;;5072012;28;20056;-72
2022/08/31 00:18:12;;;;;;;4.35;3.92;;;;;;;;;;5071498;28;20056;-72
2022/08/31 00:20:39;;;;;;;6.13;4.00;;;;;;;;;;5071925;28;20024;-73
2022/08/31 00:23:05;;;;;;;7.90;3.83;;;;;;;;;;5069297;28;20020;-73
2022/08/31 00:25:33;;;;;;;5.13;3.95;;;;;;;;;;5071714;28;20056;-74
2022/08/31 00:27:59;;;;;;;4.57;4.18;;;;;;;;;;5070716;28;20385;-75
2022/08/31 00:30:25;;;;;;;9.82;5.38;;;;;;;;;;5072005;28;20025;-75
2022/08/31 00:32:51;;;;;;;6.20;4.57;;;;;;;;;;5071035;28;20033;-75
2022/08/31 00:35:16;;;;;;;8.68;5.20;;;20.60;99.90;;;;;;5072004;28;20107;-73
2022/08/31 00:37:42;;;;;;;8.43;5.25;;;20.30;98.70;;;;;;5071468;28;20131;-72
2022/08/31 00:40:09;;;;;;;7.07;5.30;;;20.00;99.90;;;;;;5069443;28;20040;-73
2022/08/31 00:42:34;;;;;;;6.82;5.30;;;19.70;99.90;;;;;;5072111;28;20044;-73
2022/08/31 00:45:00;;;;;;;8.48;5.75;;;19.50;99.90;;;;;;5070571;28;20039;-73
2022/08/31 00:47:26;;;;;;;10.57;5.32;;;19.20;99.90;;;;;;5071489;28;20029;-72
2022/08/31 00:49:52;;;;;;;7.45;5.63;;;18.90;99.90;;;;;;5071142;28;20029;-72
2022/08/31 00:52:26;;;;;;;6.63;5.13;;;18.70;99.90;;;;;;5074808;28;20436;-72
2022/08/31 00:55:00;;;;;;;14.02;6.90;;;18.50;99.90;;;;;;5073380;28;20492;-72
2022/08/31 00:57:34;;;;;;;13.75;6.63;;;18.50;99.90;;;;;;5075447;28;20028;-73
2022/08/31 01:00:01;;;;;;;16.05;7.90;;;18.30;99.90;;;;;;5074686;28;20092;-73
2022/08/31 01:02:27;;;;;;;11.55;7.47;;;17.80;99.90;;;;;;5074939;28;20465;-74
2022/08/31 01:04:52;;;;;;;17.08;8.38;;;17.50;99.90;;;;;;5074298;28;20028;-72
2022/08/31 01:07:18;;;;;;;16.30;10.40;;;17.10;99.90;;;;;;5075157;28;20111;-72
2022/08/31 01:09:45;;;;;;;18.17;10.60;;;16.90;99.90;;;;;;5074756;28;20029;-72
2022/08/31 01:12:11;;;;;;;18.27;10.80;;;16.70;99.90;;;;;;5072089;28;20672;-72
2022/08/31 01:14:38;;;;;;;16.55;10.75;;;16.60;99.90;;;;;;5075165;28;20037;-73
2022/08/31 01:17:04;;;;;;;15.63;11.25;;;16.50;99.90;;;;;;5056137;28;20035;-73
2022/08/31 01:19:55;;;;;;;15.07;11.50;;;16.40;99.90;;;;;;5074569;28;20450;-72
2022/08/31 01:22:23;;;;;;;;;;;16.40;99.90;;;;;;5075373;28;20397;-71
2022/08/31 01:24:50;;;;;;;19.25;14.18;;;16.40;99.90;;;;;;5074768;28;19954;-72
2022/08/31 01:27:21;;;;;;;23.00;13.43;;;16.40;99.90;;;;;;5073007;28;20043;-72
2022/08/31 01:29:47;;;;;;;24.40;13.43;;;16.40;99.90;;;;;;5074955;28;20031;-72
2022/08/31 01:32:13;;;;;;;18.30;12.63;;;16.40;99.90;;;;;;5073700;28;20024;-72
2022/08/31 01:34:38;;;;;;;19.17;12.73;;;16.40;99.90;;;;;;5074723;28;20059;-71
2022/08/31 01:37:04;;;;;;;17.83;12.07;;;16.30;99.90;;;;;;5056260;28;20025;-71
2022/08/31 01:39:30;;;;;;;19.20;13.45;;;16.30;99.90;;;;;;5074722;28;20111;-71
2022/08/31 01:41:56;;;;;;;21.05;12.93;;;16.30;99.90;;;;;;5074007;28;20032;-71
2022/08/31 01:44:24;;;;;;;16.95;13.50;;;16.40;99.90;;;;;;5074649;28;20032;-71
2022/08/31 01:46:50;;;;;;;23.13;13.55;;;16.30;99.90;;;;;;5072827;28;20025;-72
2022/08/31 01:49:18;;;;;;;21.80;13.90;;;16.30;99.90;;;;;;5073349;28;20033;-72
2022/08/31 01:51:45;;;;;;;19.63;13.75;;;16.30;99.90;;;;;;5074314;28;20086;-72
2022/08/31 01:54:11;;;;;;;17.63;13.63;;;16.20;99.90;;;;;;5073858;28;20111;-72
2022/08/31 01:56:39;;;;;;;17.63;14.32;;;16.20;99.90;;;;;;5073665;28;20128;-73
2022/08/31 01:59:07;;;;;;;21.42;14.32;;;16.20;99.90;;;;;;5073474;28;20351;-71
2022/08/31 02:01:36;;;;;;;18.92;13.48;;;16.20;99.90;;;;;;5072091;28;20025;-72
2022/08/31 02:04:04;;;;;;;17.67;13.45;;;;;;;;;;5072921;28;20035;-72
2022/08/31 02:06:32;;;;;;;21.92;14.02;;;;;;;;;;5074099;28;20032;-72
2022/08/31 02:08:59;;;;;;;20.23;13.98;;;;;;;;;;5073090;28;20153;-72
2022/08/31 02:11:25;;;;;;;17.52;11.70;;;;;;;;;;5073815;28;20364;-72
2022/08/31 02:13:51;;;;;;;17.15;12.48;;;;;;;;;;5073793;28;20450;-73
2022/08/31 02:16:17;;;;;;;17.20;12.35;;;;;;;;;;5073074;28;20016;-72
2022/08/31 02:18:43;;;;;;;16.35;11.77;;;;;;;;;;5072510;28;20452;-71
2022/08/31 02:21:09;;;;;;;16.25;12.13;;;;;;;;;;5073027;28;20052;-70
2022/08/31 02:23:35;;;;;;;14.95;11.80;;;;;;;;;;5073875;28;20090;-71
2022/08/31 02:26:01;;;;;;;18.33;13.10;;;;;;;;;;5072892;28;20461;-70
2022/08/31 02:28:27;;;;;;;14.27;12.65;;;;;;;;;;5073249;28;20028;-70
2022/08/31 02:30:53;;;;;;;16.10;13.07;;;;;;;;;;5073649;28;20362;-70
2022/08/31 02:33:19;;;;;;;18.88;14.02;;;;;;;;;;5072886;28;20060;-71
2022/08/31 02:35:45;;;;;;;17.52;13.50;;;;;;;;;;5071996;28;20462;-70
2022/08/31 02:38:11;;;;;;;18.52;13.82;;;;;;;;;;5072798;28;20036;-72
2022/08/31 02:40:39;;;;;;;16.42;13.75;;;;;;;;;;5073480;28;20021;-72
2022/08/31 02:43:06;;;;;;;18.50;14.30;;;;;;;;;;5072642;28;20056;-71
2022/08/31 02:45:32;;;;;;;20.00;13.77;;;;;;;;;;5073289;28;20028;-73
2022/08/31 02:47:58;;;;;;;18.50;13.80;;;;;;;;;;5072967;28;20032;-72
2022/08/31 02:50:24;;;;;;;18.95;14.98;;;;;;;;;;5071741;28;20112;-72
2022/08/31 02:52:52;;;;;;;19.00;15.20;;;;;;;;;;5073289;28;20024;-73
2022/08/31 02:55:18;;;;;;;16.08;14.00;;;;;;;;;;5072341;28;20020;-73
2022/08/31 02:57:44;;;;;;;17.80;15.90;;;;;;;;;;5072958;28;20024;-72
2022/08/31 03:00:11;;;;;;;20.33;16.23;;;;;;;;;;5071890;28;20036;-73
2022/08/31 03:02:38;;;;;;;21.17;16.10;;;;;;;;;;5073082;28;20024;-71
2022/08/31 03:05:07;;;;;;;19.05;16.23;;;;;;;;;;5071844;28;20035;-71
2022/08/31 03:07:37;;;;;;;24.30;15.80;;;;;;;;;;5071751;28;20032;-71
2022/08/31 03:10:04;;;;;;;19.52;15.20;;;;;;;;;;5071995;28;20377;-71
2022/08/31 03:12:30;;;;;;;19.88;14.75;;;;;;;;;;5072988;28;20052;-71
2022/08/31 03:14:56;;;;;;;18.02;14.73;;;;;;;;;;5072040;28;20035;-71
2022/08/31 03:17:22;;;;;;;19.17;15.32;;;;;;;;;;5072466;28;20028;-70
2022/08/31 03:19:48;;;;;;;19.13;15.20;;;;;;;;;;5072719;28;20419;-70
2022/08/31 03:22:14;;;;;;;19.23;16.58;;;;;;;;;;5071812;28;20025;-70
2022/08/31 03:24:40;;;;;;;18.35;15.93;;;;;;;;;;5071064;28;20027;-70
2022/08/31 03:27:06;;;;;;;19.30;16.08;;;;;;;;;;5071607;28;20028;-70
2022/08/31 03:29:32;;;;;;;18.25;15.23;;;;;;;;;;5072274;28;20389;-70
2022/08/31 03:31:58;;;;;;;25.13;16.48;;;;;;;;;;5072241;28;20047;-70
2022/08/31 03:34:24;;;;;;;20.98;15.80;;;16.30;99.90;;;;;;5072010;28;20458;-70
2022/08/31 03:36:49;;;;;;;20.27;15.98;;;16.20;99.90;;;;;;5072339;28;20063;-70
2022/08/31 03:39:15;;;;;;;17.55;14.82;;;16.20;99.90;;;;;;5071587;28;20449;-70
2022/08/31 03:41:41;;;;;;;20.52;16.23;;;16.10;99.90;;;;;;5072368;28;20029;-70
2022/08/31 03:44:06;;;;;;;20.48;15.57;;;16.10;99.90;;;;;;5070328;28;20063;-71
2022/08/31 03:46:33;;;;;;;19.88;16.05;;;16.10;99.90;;;;;;5072054;28;20362;-71
2022/08/31 03:49:00;;;;;;;20.77;17.20;;;16.10;99.90;;;;;;5072209;28;20028;-71
2022/08/31 03:51:26;;;;;;;18.27;15.77;;;16.10;99.90;;;;;;5071786;28;20115;-71
2022/08/31 03:53:52;;;;;;;24.52;18.40;;;16.20;99.90;;;;;;5072212;28;20035;-70
2022/08/31 03:56:18;;;;;;;19.52;15.80;;;16.10;99.90;;;;;;5070863;28;20099;-71
2022/08/31 03:58:43;;;;;;;20.73;16.35;;;16.10;99.90;;;;;;5070518;28;20017;-71
2022/08/31 04:01:11;;;;;;;21.15;17.63;;;16.10;99.90;;;;;;5070967;28;20033;-71
2022/08/31 04:03:37;;;;;;;21.20;17.10;;;16.10;99.90;;;;;;5071716;28;20432;-71
2022/08/31 04:06:07;;;;;;;25.33;19.25;;;16.10;99.90;;;;;;5071110;28;20120;-72
2022/08/31 04:08:33;;;;;;;22.15;17.08;;;16.10;99.90;;;;;;5072258;28;20029;-72
2022/08/31 04:10:59;;;;;;;23.27;18.88;;;16.20;99.90;;;;;;5072064;28;20033;-71
2022/08/31 04:13:24;;;;;;;21.60;17.52;;;16.20;99.90;;;;;;5070850;28;20454;-71
2022/08/31 04:15:50;;;;;;;20.73;17.63;;;16.20;99.90;;;;;;5070511;28;20045;-73
2022/08/31 04:18:16;;;;;;;25.42;18.50;;;16.20;99.90;;;;;;5071077;28;20392;-72
2022/08/31 04:20:41;;;;;;;23.23;16.67;;;16.20;99.90;;;;;;5071859;28;20032;-72
2022/08/31 04:23:08;;;;;;;18.55;16.13;;;16.10;99.90;;;;;;5071070;28;20020;-72
2022/08/31 04:25:41;;;;;;;18.05;15.45;;;16.10;99.90;;;;;;5072911;28;20033;-72
2022/08/31 04:28:08;;;;;;;19.75;16.30;;;16.10;99.90;;;;;;5075219;28;20032;-72
2022/08/31 04:30:39;;;;;;;19.42;15.23;;;16.10;99.90;;;;;;5074371;28;20021;-72
2022/08/31 04:33:06;;;;;;;21.13;17.42;;;16.10;99.90;;;;;;5074808;28;20153;-72
2022/08/31 04:35:31;;;;;;;21.05;16.75;;;16.10;99.90;;;;;;5075827;28;20382;-71
2022/08/31 04:37:57;;;;;;;19.65;16.98;;;16.10;99.90;;;;;;5075890;28;20029;-71
2022/08/31 04:40:23;;;;;;;20.45;16.05;;;16.10;99.90;;;;;;5074990;28;20082;-72
2022/08/31 04:42:49;;;;;;;20.42;17.80;;;16.10;99.90;;;;;;5076319;27;20060;-72
2022/08/31 04:45:15;;;;;;;23.17;17.52;;;16.10;99.90;;;;;;5074493;28;20032;-72
2022/08/31 04:47:42;;;;;;;22.88;18.27;;;16.10;99.90;;;;;;5074117;28;20158;-72
2022/08/31 04:50:10;;;;;;;20.67;17.23;;;16.10;99.90;;;;;;5074685;28;20068;-72
2022/08/31 04:52:36;;;;;;;20.10;15.93;;;16.10;99.90;;;;;;5075013;28;20078;-72
2022/08/31 04:55:02;;;;;;;21.77;18.08;;;16.10;99.90;;;;;;5075431;28;20056;-72
2022/08/31 04:57:28;;;;;;;21.63;16.50;;;16.10;99.90;;;;;;5074997;28;20060;-72
2022/08/31 04:59:53;;;;;;;20.30;17.48;;;16.10;99.90;;;;;;5074915;28;20116;-73
2022/08/31 05:02:19;;;;;;;23.73;16.80;;;16.10;99.90;;;;;;5073120;28;20024;-72
2022/08/31 05:04:44;;;;;;;20.60;15.57;;;16.10;99.90;;;;;;5074351;28;20112;-72
2022/08/31 05:07:10;;;;;;;19.65;16.90;;;16.10;99.90;;;;;;5074218;28;20162;-72
2022/08/31 05:09:36;;;;;;;20.42;15.95;;;16.10;99.90;;;;;;5075307;28;20052;-72
2022/08/31 05:12:01;;;;;;;20.65;15.50;;;16.10;99.90;;;;;;5074861;28;20119;-72
2022/08/31 05:14:27;;;;;;;19.15;14.75;;;16.10;99.90;;;;;;5056466;28;20032;-72
2022/08/31 05:16:53;;;;;;;18.73;15.43;;;16.10;99.90;;;;;;5074874;28;20024;-72
2022/08/31 05:19:19;;;;;;;15.93;14.13;;;16.10;99.90;;;;;;5074277;28;20051;-73
2022/08/31 05:21:45;;;;;;;23.40;15.75;;;16.00;99.90;;;;;;5073556;28;20374;-72
2022/08/31 05:24:21;;;;;;;18.48;15.80;;;16.00;99.90;;;;;;5074163;28;20033;-72
2022/08/31 05:26:52;;;;;;;21.90;15.85;;;16.00;99.90;;;;;;5074883;28;20028;-73
2022/08/31 05:29:21;;;;;;;20.65;16.60;;;16.00;99.90;;;;;;5074156;28;20021;-73
2022/08/31 05:31:47;;;;;;;19.67;15.07;;;16.10;99.90;;;;;;5074845;28;20079;-73
2022/08/31 05:34:14;;;;;;;19.83;17.00;;;16.00;99.90;;;;;;5073707;28;20028;-73
2022/08/31 05:36:41;;;;;;;22.63;16.20;;;16.10;99.90;;;;;;5073157;28;20028;-73
2022/08/31 05:39:10;;;;;;;21.20;16.38;;;16.10;99.90;;;;;;5074185;28;20028;-72
2022/08/31 05:41:37;;;;;;;21.10;16.33;;;16.10;99.90;;;;;;5074319;28;20458;-73
2022/08/31 05:44:04;;;;;;;22.10;17.55;;;16.10;99.90;;;;;;5074647;28;20076;-73
2022/08/31 05:46:30;;;;;;;22.38;16.92;;;16.10;99.90;;;;;;5073657;28;20036;-73
2022/08/31 05:48:56;;;;;;;19.83;16.67;;;16.20;99.90;;;;;;5074844;28;20094;-73
2022/08/31 05:51:22;;;;;;;19.73;15.77;;;16.20;99.90;;;;;;5054233;28;20029;-73
2022/08/31 05:53:48;;;;;;;19.33;15.48;;;16.20;99.90;;;;;;5074383;28;20029;-73
2022/08/31 05:56:20;;;;;;;20.27;15.82;;;16.20;99.90;;;;;;5073297;28;20073;-72
2022/08/31 05:58:47;;;;;;;25.20;14.85;;;16.20;99.90;;;;;;5074408;28;20558;-72
2022/08/31 06:01:23;;;;;;;16.15;13.10;;;16.20;99.90;;;;;;5073465;28;20029;-72
2022/08/31 06:03:49;;;;;;;15.88;13.38;;;16.30;99.90;;;;;;5073944;28;20025;-73
2022/08/31 06:06:16;;;;;;;19.45;16.13;;;16.20;99.90;;;;;;5073258;28;20028;-73
2022/08/31 06:08:42;;;;;;;24.48;18.65;;;16.30;99.90;;;;;;5074016;28;20033;-72
2022/08/31 06:11:13;;;;;;;18.92;16.90;;;16.30;99.90;;;;;;5072547;28;20032;-76
2022/08/31 06:13:38;;;;;;;;;;;16.40;99.90;;;;;;5074384;28;20039;-74
2022/08/31 06:16:05;;;;;;;21.13;17.20;;;16.50;99.90;;;;;;5073863;28;20357;-74
2022/08/31 06:18:31;;;;;;;19.15;15.77;;;16.50;99.90;;;;;;5067791;28;20035;-74
2022/08/31 06:21:02;;;;;;;22.27;16.13;;;16.60;99.90;;;;;;5073260;28;20415;-73
2022/08/31 06:23:28;;;;;;;19.63;16.38;;;16.60;99.90;;;;;;5072552;28;20283;-73
2022/08/31 06:26:05;;;;;;;21.05;16.75;;;16.60;99.90;;;;;;5073498;28;20043;-73
2022/08/31 06:28:32;;;;;;;21.58;16.05;;;16.60;99.90;;;;;;5072696;28;20033;-74
2022/08/31 06:30:59;;;;;;;19.73;15.63;;;16.60;99.90;;;;;;5073088;28;20528;-73
2022/08/31 06:33:25;;;;;;;18.92;15.18;;;16.70;99.90;;;;;;5053535;28;20446;-73
2022/08/31 06:35:50;;;;;;;17.40;13.70;;;16.60;99.90;;;;;;5073209;28;20059;-73
2022/08/31 06:38:16;;;;;;;16.15;13.75;;;16.60;99.90;;;;;;5071975;28;20095;-73
2022/08/31 06:40:41;;;;;;;16.63;14.25;;;16.70;99.90;;;;;;5073020;28;20335;-73
2022/08/31 06:43:07;;;;;;;21.02;16.15;;;16.70;99.90;;;;;;5072086;28;20052;-73
2022/08/31 06:45:33;;;;;;;19.42;16.17;;;16.70;99.90;;;;;;5072605;28;20032;-73
2022/08/31 06:47:59;;;;;;;18.80;15.30;;;16.70;99.90;;;;;;5071744;28;20036;-73
2022/08/31 06:50:25;;;;;;;19.52;14.73;;;16.70;99.90;;;;;;5072261;28;20051;-73
2022/08/31 06:52:51;;;;;;;19.52;14.68;;;16.80;99.90;;;;;;5073172;28;20039;-73
2022/08/31 06:55:16;;;;;;;16.75;12.63;;;16.80;99.90;;;;;;5071687;28;20033;-74
2022/08/31 06:57:42;;;;;;;20.02;14.25;;;16.80;99.90;;;;;;5073149;28;20373;-74
2022/08/31 07:00:08;;;;;;;16.02;13.05;;;16.80;99.90;;;;;;5066047;28;20040;-74
2022/08/31 07:02:34;;;;;;;16.08;12.38;;;16.80;99.90;;;;;;5072532;28;20149;-74
2022/08/31 07:05:00;;;;;;;19.58;13.35;;;16.80;99.90;;;;;;5071857;28;20054;-74
2022/08/31 07:07:26;;;;;;;14.82;13.20;;;16.80;99.90;;;;;;5071626;28;20776;-74
2022/08/31 07:09:51;;;;;;;18.08;13.48;;;16.80;99.90;;;;;;5071914;28;20103;-73
2022/08/31 07:12:17;;;;;;;14.95;11.68;;;16.90;99.90;;;;;;5071607;28;20385;-73
2022/08/31 07:14:45;;;;;;;13.02;11.20;;;16.90;99.90;;;;;;5072419;28;20024;-73
2022/08/31 07:17:11;;;;;;;14.80;11.18;;;17.00;99.90;;;;;;5071546;28;20046;-73
2022/08/31 07:19:36;;;;;;;12.23;10.38;;;17.00;99.90;;;;;;5071927;28;20028;-74
2022/08/31 07:22:06;;;;;;;12.77;10.73;;;17.00;99.90;;;;;;5071866;28;20020;-73
2022/08/31 07:24:34;;;;;;;10.48;9.10;;;17.00;99.90;;;;;;5056757;28;20036;-73
2022/08/31 07:27:09;;;;;;;11.05;9.85;;;17.00;99.90;;;;;;5072270;28;20111;-73
2022/08/31 07:29:39;;;;;;;10.88;9.77;;;17.10;99.90;;;;;;5071857;28;20085;-73
2022/08/31 07:32:14;;;;;;;15.07;10.10;;;17.10;99.90;;;;;;5070714;28;20078;-73
2022/08/31 07:34:42;;;;;;;12.05;10.77;;;17.10;99.90;;;;;;5079123;28;20055;-73
2022/08/31 07:42:42;;;;;;;10.77;9.52;;;17.20;99.90;;;;;;5067795;28;20055;-73
2022/08/31 07:45:12;;;;;;;13.93;9.68;;;17.20;99.90;;;;;;5060963;28;20033;-74
2022/08/31 07:47:43;;;;;;;11.13;9.43;;;17.20;99.90;;;;;;5071849;28;20496;-73
2022/08/31 07:50:09;;;;;;;12.80;9.48;;;17.10;99.90;;;;;;5037865;28;20434;-73
2022/08/31 07:52:47;;;;;;;11.52;8.65;;;17.10;99.90;;;;;;5052191;28;20035;-72
2022/08/31 07:55:14;;;;;;;9.02;8.13;;;17.00;99.90;;;;;;5050221;28;20425;-73
2022/08/31 07:57:43;;;;;;;14.65;10.05;;;16.90;99.90;;;;;;5051440;28;20028;-72
2022/08/31 08:00:19;;;;;;;11.97;8.87;;;16.90;99.90;;;;;;5057305;28;20378;-74
2022/08/31 08:02:45;;;;;;;10.23;9.23;;;16.90;99.90;;;;;;5064264;28;20028;-76
2022/08/31 08:05:21;;;;;;;11.02;8.65;;;16.90;99.90;;;;;;5054485;28;20466;-74
2022/08/31 08:07:52;;;;;;;10.48;8.88;;;16.80;99.90;;;;;;5067626;28;20060;-75
2022/08/31 08:10:20;;;;;;;10.43;8.60;;;16.90;99.90;;;;;;5034354;28;20454;-75
2022/08/31 08:12:57;;;;;;;11.40;8.48;;;16.90;99.90;;;;;;5043535;28;20475;-76
2022/08/31 08:15:23;;;;;;;9.63;8.38;;;16.90;99.90;;;;;;5050141;28;20029;-75
2022/08/31 08:17:49;;;;;;;12.35;9.88;;;17.00;99.90;;;;;;5067878;28;20078;-75
2022/08/31 08:20:15;;;;;;;13.45;8.82;;;17.00;99.90;;;;;;5053688;28;20031;-76
2022/08/31 08:22:42;;;;;;;12.45;9.00;;;17.00;99.90;;;;;;5064805;28;20033;-76
2022/08/31 08:25:08;;;;;;;11.48;9.35;;;17.00;99.90;;;;;;5061890;28;20029;-77
2022/08/31 08:27:34;;;;;;;10.40;9.35;;;17.10;99.90;;;;;;5056396;28;20041;-77
2022/08/31 08:30:00;;;;;;;14.85;10.50;;;17.10;99.90;;;;;;5067913;28;20105;-76
2022/08/31 08:32:26;;;;;;;11.93;9.27;;;17.10;99.90;;;;;;5050428;28;20029;-76
2022/08/31 08:34:52;;;;;;;11.73;10.00;;;17.20;99.90;;;;;;5059653;28;20028;-76
2022/08/31 08:37:17;;;;;;;13.88;9.77;;;17.20;99.90;;;;;;5058558;28;20029;-76
2022/08/31 08:39:43;;;;;;;10.35;9.27;;;17.30;99.90;;;;;;5066854;28;20063;-75
2022/08/31 08:42:13;;;;;;;12.20;9.77;;;17.30;99.90;;;;;;5054328;28;20049;-75
2022/08/31 08:44:39;;;;;;;11.57;10.15;;;17.30;99.90;;;;;;5064762;28;20036;-78
2022/08/31 08:47:19;;;;;;;12.93;9.57;;;17.40;99.90;;;;;;5050431;28;20094;-77
2022/08/31 08:49:48;;;;;;;12.60;10.00;;;17.40;99.90;;;;;;5034391;28;20041;-76
2022/08/31 08:52:25;;;;;;;14.80;10.60;;;17.40;99.90;;;;;;5050474;28;20025;-75
2022/08/31 08:54:53;;;;;;;12.85;9.35;;;17.50;99.90;;;;;;5051391;28;20052;-76
2022/08/31 08:57:25;;;;;;;11.65;9.07;;;17.50;99.90;;;;;;5050565;28;20029;-77
2022/08/31 08:59:56;;;;;;;12.57;9.50;;;17.60;99.90;;;;;;5051149;28;20056;-76
2022/08/31 09:02:44;;;;;;;12.38;10.32;;;17.60;99.90;;;;;;5045225;28;20021;-76
2022/08/31 09:05:48;;;;;;;9.57;7.63;;;17.70;99.90;;;;;;5050234;28;20036;-74
2022/08/31 09:08:41;;;;;;;14.05;9.98;;;17.70;99.90;;;;;;5050092;28;20025;-75
2022/08/31 09:11:16;;;;;;;14.30;9.88;;;17.80;99.90;;;;;;5051377;28;20021;-77
2022/08/31 09:14:18;;;;;;;11.45;8.38;;;17.90;99.90;;;;;;5054841;28;20474;-77
2022/08/31 09:17:08;;;;;;;15.15;9.43;;;18.10;99.90;;;;;;5042134;28;20040;-77
2022/08/31 09:19:57;;;;;;;13.38;8.45;;;18.10;99.90;;;;;;5053938;28;20163;-77
2022/08/31 09:22:20;;;;;;;10.43;8.18;;;18.20;99.90;;;;;;5044548;28;20064;-78
2022/08/31 09:24:51;;;;;;;11.80;9.15;;;18.30;99.90;;;;;;5055064;28;20532;-77
2022/08/31 09:27:38;;;;;;;11.05;8.75;;;18.40;99.90;;;;;;5053868;28;20087;-77
2022/08/31 09:30:05;;;;;;;10.10;8.63;;;18.50;99.90;;;;;;5054542;28;20028;-76
2022/08/31 09:32:34;;;;;;;10.02;8.25;;;18.50;99.90;;;;;;5054191;28;20039;-77
2022/08/31 09:35:03;;;;;;;12.20;8.10;;;18.60;99.90;;;;;;5054676;28;20432;-77
2022/08/31 09:37:32;;;;;;;10.10;8.35;;;18.70;99.90;;;;;;5053368;28;20539;-76
2022/08/31 09:40:17;;;;;;;9.05;7.82;;;18.70;99.90;;;;;;5053712;28;20033;-76
2022/08/31 09:42:47;;;;;;;13.50;7.72;;;18.70;99.90;;;;;;5054201;27;20055;-75
2022/08/31 09:45:28;;;;;;;10.45;7.75;;;18.80;99.90;;;;;;5063463;28;20032;-74
2022/08/31 09:47:59;;;;;;;9.30;7.82;;;18.80;99.90;;;;;;5050719;28;20461;-76
2022/08/31 09:50:37;;;;;;;11.32;8.60;;;18.80;99.90;;;;;;5039825;28;20116;-76
2022/08/31 09:56:17;;;;;;;13.32;9.10;;;18.80;99.90;;;;;;5053904;28;20047;-77
2022/08/31 09:59:01;;;;;;;9.40;8.02;;;18.90;99.90;;;;;;5041297;28;20383;-77
2022/08/31 10:01:42;;;;;;;10.50;8.32;;;18.80;99.90;;;;;;5062229;28;20044;-77
2022/08/31 10:04:26;;;;;;;9.50;8.30;;;18.80;99.90;;;;;;5055153;28;20057;-76
2022/08/31 10:07:14;;;;;;;9.00;7.75;;;18.90;99.90;;;;;;5053653;28;20155;-77
2022/08/31 10:10:00;;;;;;;11.10;7.55;;;19.00;99.90;;;;;;5054172;28;20100;-77
2022/08/31 10:12:57;;;;;;;9.13;7.25;;;19.10;99.90;;;;;;5038598;28;20478;-77
2022/08/31 10:16:01;;;;;;;12.27;7.05;;;19.20;99.90;;;;;;5054200;28;20029;-78
2022/08/31 10:18:30;;;;;;;13.80;8.07;;;19.20;99.90;;;;;;5038517;28;20055;-78
2022/08/31 10:21:04;;;;;;;7.93;6.60;;;19.30;99.90;;;;;;5055353;28;20021;-76
2022/08/31 10:23:43;;;;;;;7.50;5.80;;;19.30;99.90;;;;;;5053953;28;20047;-77
2022/08/31 10:26:19;;;;;;;7.47;6.07;;;19.40;99.90;;;;;;5058277;28;20044;-76
2022/08/31 10:28:51;;;;;;;15.10;7.50;;;19.50;99.90;;;;;;5060683;28;20059;-77
2022/08/31 10:31:30;;;;;;;9.35;6.57;;;19.50;99.90;;;;;;5059113;28;20089;-74
2022/08/31 10:37:23;;;;;;;9.52;6.90;;;19.70;99.90;;;;;;5057009;28;20039;-75
2022/08/31 10:39:57;;;;;;;9.48;7.35;;;19.70;99.90;;;;;;5069639;28;20025;-76
2022/08/31 10:42:36;;;;;;;8.85;7.22;;;19.70;99.90;;;;;;5055589;28;20032;-76
2022/08/31 10:45:16;;;;;;;7.93;6.90;;;19.70;99.90;;;;;;5073593;28;20021;-79
2022/08/31 10:47:47;;;;;;;9.13;7.25;;;19.70;99.90;;;;;;5070115;28;20056;-83
2022/08/31 10:50:25;;;;;;;10.30;6.40;;;19.70;99.90;;;;;;5071856;28;20021;-81
2022/08/31 10:53:12;;;;;;;9.80;6.47;;;19.70;99.90;;;;;;5069221;28;20052;-83
2022/08/31 10:56:01;;;;;;;13.90;7.40;;;19.60;99.90;;;;;;5054104;28;20815;-84
2022/08/31 10:58:47;;;;;;;8.45;6.55;;;19.60;99.90;;;;;;5038913;28;20033;-84
2022/08/31 11:01:29;;;;;;;15.18;7.13;;;19.60;99.90;;;;;;5054427;28;20025;-82
2022/08/31 11:04:33;;;;;;;10.15;7.05;;;19.70;99.90;;;;;;5054061;28;20075;-83
2022/08/31 11:07:23;;;;;;;12.75;7.18;;;19.60;99.90;;;;;;5043156;28;20385;-82
2022/08/31 11:10:08;;;;;;;10.70;6.90;;;19.50;99.90;;;;;;5054225;28;20051;-82
2022/08/31 11:12:41;;;;;;;9.35;6.55;;;19.50;99.90;;;;;;5039093;28;20029;-83
2022/08/31 11:15:09;;;;;;;8.25;6.68;;;19.50;99.90;;;;;;5053774;28;20485;-83
2022/08/31 11:17:46;;;;;;;10.50;6.93;;;19.40;99.90;;;;;;5052761;28;20170;-83
2022/08/31 11:20:32;;;;;;;9.40;7.20;;;19.30;99.90;;;;;;5053722;28;20496;-83
2022/08/31 11:24:06;;;;;;;9.20;6.47;;;19.30;99.90;;;;;;5053073;28;20374;-83
2022/08/31 11:26:52;;;;;;;13.10;7.80;;;19.20;99.90;;;;;;4970835;28;20053;-82
2022/08/31 11:29:42;;;;;;;10.15;7.10;;;19.10;99.90;;;;;;4971040;28;20179;-79
2022/08/31 11:32:18;;;;;;;10.63;7.68;;;19.00;99.90;;;;;;4971580;28;20047;-83
2022/08/31 11:34:50;;;;;;;10.45;7.20;;;19.00;99.90;;;;;;4971641;28;20042;-82
2022/08/31 11:37:50;;;;;;;9.98;7.03;;;19.00;99.90;;;;;;4969915;28;20038;-79
2022/08/31 11:40:40;;;;;;;12.20;7.45;;;19.00;99.90;;;;;;4971072;28;20023;-79
2022/08/31 11:43:13;;;;;;;8.00;6.80;;;18.90;99.90;;;;;;4977847;28;20085;-83
2022/08/31 11:45:40;;;;;;;13.85;7.00;;;18.90;99.90;;;;;;4975750;28;20114;-83
2022/08/31 11:48:27;;;;;;;15.48;7.95;;;18.90;99.90;;;;;;4987604;28;20483;-83
2022/08/31 11:50:53;;;;;;;9.02;6.60;;;18.90;99.90;;;;;;4980079;28;20038;-83
2022/08/31 11:53:39;;;;;;;16.17;8.05;;;18.90;99.90;;;;;;4978070;28;20061;-80
2022/08/31 11:56:06;;;;;;;8.88;6.43;;;18.90;99.90;;;;;;4989001;28;20494;-83
2022/08/31 11:58:38;;;;;;;9.23;7.38;;;18.90;99.90;;;;;;5067862;28;20033;-83
2022/08/31 12:01:09;;;;;;;8.82;7.00;;;18.90;99.90;;;;;;5062807;28;20028;-84
2022/08/31 12:03:46;;;;;;;14.18;7.78;;;18.90;99.90;;;;;;5057174;28;20025;-84
2022/08/31 12:06:27;;;;;;;10.30;6.22;;;19.00;99.90;;;;;;5058595;28;20604;-83
2022/08/31 12:09:11;;;;;;;;;;;19.00;99.90;;;;;;5046671;28;20393;-83
2022/08/31 12:12:06;;;;;;;9.18;6.25;;;19.00;99.90;;;;;;5060745;28;19958;-83
2022/08/31 12:14:55;;;;;;;10.98;6.95;;;19.10;99.90;;;;;;5042303;28;20027;-83
2022/08/31 12:17:37;;;;;;;9.70;7.40;;;19.10;99.90;;;;;;5059598;28;20104;-79
2022/08/31 12:20:11;;;;;;;10.30;7.00;;;19.30;99.90;;;;;;5069204;28;20104;-83
2022/08/31 12:25:56;;;;;;;7.90;6.30;;;19.50;99.90;;;;;;5057540;28;20063;-82
2022/08/31 12:29:00;;;;;;;12.93;7.78;;;19.50;99.90;;;;;;5036989;28;20032;-77
2022/08/31 12:31:26;;;;;;;9.73;8.10;;;19.70;99.90;;;;;;5046493;28;20420;-82
2022/08/31 12:34:15;;;;;;;10.73;7.82;;;19.60;99.90;;;;;;5055312;28;20068;-80
2022/08/31 12:36:41;;;;;;;10.50;8.33;;;19.50;99.90;;;;;;5052783;28;20036;-82
2022/08/31 12:39:21;;;;;;;13.05;8.02;;;19.60;99.90;;;;;;5063902;28;20031;-82
2022/08/31 12:41:57;;;;;;;16.40;7.68;;;19.70;99.90;;;;;;5055592;28;20026;-82
2022/08/31 12:44:44;;;;;;;10.80;7.65;;;19.90;99.90;;;;;;5051633;28;20048;-78
2022/08/31 12:47:33;;;;;;;10.32;7.43;;;20.10;99.90;;;;;;5073652;28;20037;-82
2022/08/31 12:50:17;;;;;;;14.05;8.15;;;20.40;99.90;;;;;;5074810;28;20025;-82
2022/08/31 12:52:52;;;;;;;11.35;6.93;;;20.50;99.90;;;;;;5073579;28;20036;-81
2022/08/31 12:55:27;;;;;;;9.55;6.07;;;20.60;99.90;;;;;;5075199;28;20032;-81
2022/08/31 12:58:21;;;;;;;10.38;7.50;;;20.80;99.90;;;;;;5075199;28;20024;-80
2022/08/31 13:00:47;;;;;;;11.68;6.90;;;21.10;99.90;;;;;;5074901;28;20033;-82
2022/08/31 13:03:26;;;;;;;10.65;6.00;;;21.30;99.90;;;;;;5075152;28;20024;-83
2022/08/31 13:06:04;;;;;;;11.90;7.88;;;21.30;99.90;;;;;;5074761;28;20112;-82
2022/08/31 13:08:35;;;;;;;13.35;8.55;;;21.40;99.90;;;;;;5074469;28;20029;-83
2022/08/31 13:11:22;;;;;;;8.68;6.60;;;21.40;99.90;;;;;;5075206;28;20489;-81
2022/08/31 13:13:49;;;;;;;9.48;6.40;;;21.40;99.90;;;;;;5075317;28;20025;-81
2022/08/31 13:16:16;;;;;;;10.05;6.05;;;21.40;99.90;;;;;;5074821;28;20025;-82
2022/08/31 13:18:42;;;;;;;8.68;6.57;;;21.50;99.90;;;;;;5074656;28;20107;-77
2022/08/31 13:21:07;;;;;;;12.07;7.40;;;21.80;99.90;;;;;;5074330;28;20481;-78
2022/08/31 13:23:38;;;;;;;12.40;7.97;;;22.20;99.90;;;;;;5073643;28;20481;-78
2022/08/31 13:26:19;;;;;;;9.90;7.70;;;22.80;99.90;;;;;;5073578;28;20036;-79
2022/08/31 13:28:56;;;;;;;15.80;7.35;;;23.10;99.90;;;;;;5073337;28;20496;-76